sensor_id;sensor_type;location;lat;lon;timestamp;P1;durP1;ratioP1;P2;durP2;ratioP2
691;SDS011;70475;50.084;8.576;2024-03-07T00:00:07;21.80;;;10.17;;
691;SDS011;70475;50.084;8.576;2024-03-07T00:02:42;15.47;;;10.30;;
691;SDS011;70475;50.084;8.576;2024-03-07T00:05:10;16.47;;;11.60;;
691;SDS011;70475;50.084;8.576;2024-03-07T00:07:40;17.37;;;8.90;;
691;SDS011;70475;50.084;8.576;2024-03-07T00:10:08;9.77;;;8.37;;
691;SDS011;70475;50.084;8.576;2024-03-07T00:12:37;14.70;;;7.13;;
691;SDS011;70475;50.084;8.576;2024-03-07T00:15:07;20.73;;;9.40;;
691;SDS011;70475;50.084;8.576;2024-03-07T00:17:37;19.87;;;11.50;;
691;SDS011;70475;50.084;8.576;2024-03-07T00:20:05;11.40;;;8.37;;
691;SDS011;70475;50.084;8.576;2024-03-07T00:22:35;5.50;;;4.77;;
691;SDS011;70475;50.084;8.576;2024-03-07T00:25:05;14.47;;;9.93;;
691;SDS011;70475;50.084;8.576;2024-03-07T00:27:33;13.43;;;8.37;;
691;SDS011;70475;50.084;8.576;2024-03-07T00:30:01;9.73;;;5.90;;
691;SDS011;70475;50.084;8.576;2024-03-07T00:32:31;20.93;;;11.93;;
691;SDS011;70475;50.084;8.576;2024-03-07T00:35:02;17.70;;;12.10;;
691;SDS011;70475;50.084;8.576;2024-03-07T00:37:30;18.77;;;10.00;;
691;SDS011;70475;50.084;8.576;2024-03-07T00:39:58;21.40;;;12.10;;
691;SDS011;70475;50.084;8.576;2024-03-07T00:42:27;19.30;;;10.43;;
691;SDS011;70475;50.084;8.576;2024-03-07T00:44:55;23.07;;;11.57;;
691;SDS011;70475;50.084;8.576;2024-03-07T00:47:23;20.80;;;11.37;;
691;SDS011;70475;50.084;8.576;2024-03-07T00:49:50;15.77;;;10.23;;
691;SDS011;70475;50.084;8.576;2024-03-07T00:52:18;25.93;;;11.27;;
691;SDS011;70475;50.084;8.576;2024-03-07T00:54:45;11.40;;;7.50;;
691;SDS011;70475;50.084;8.576;2024-03-07T00:57:13;18.67;;;10.03;;
691;SDS011;70475;50.084;8.576;2024-03-07T00:59:42;15.80;;;11.73;;
691;SDS011;70475;50.084;8.576;2024-03-07T01:02:10;16.50;;;11.07;;
691;SDS011;70475;50.084;8.576;2024-03-07T01:04:37;15.53;;;9.73;;
691;SDS011;70475;50.084;8.576;2024-03-07T01:07:05;17.07;;;8.93;;
691;SDS011;70475;50.084;8.576;2024-03-07T01:09:32;20.93;;;11.30;;
691;SDS011;70475;50.084;8.576;2024-03-07T01:12:01;18.60;;;9.93;;
691;SDS011;70475;50.084;8.576;2024-03-07T01:14:31;16.97;;;8.77;;
691;SDS011;70475;50.084;8.576;2024-03-07T01:17:00;10.50;;;7.23;;
691;SDS011;70475;50.084;8.576;2024-03-07T01:19:27;16.67;;;9.90;;
691;SDS011;70475;50.084;8.576;2024-03-07T01:21:55;19.23;;;13.47;;
691;SDS011;70475;50.084;8.576;2024-03-07T01:24:22;16.70;;;9.50;;
691;SDS011;70475;50.084;8.576;2024-03-07T01:26:51;18.50;;;10.17;;
691;SDS011;70475;50.084;8.576;2024-03-07T01:29:19;16.43;;;10.40;;
691;SDS011;70475;50.084;8.576;2024-03-07T01:31:46;16.27;;;9.90;;
691;SDS011;70475;50.084;8.576;2024-03-07T01:34:16;23.53;;;14.17;;
691;SDS011;70475;50.084;8.576;2024-03-07T01:36:44;19.67;;;12.90;;
691;SDS011;70475;50.084;8.576;2024-03-07T01:39:11;13.17;;;9.60;;
691;SDS011;70475;50.084;8.576;2024-03-07T01:41:40;17.43;;;13.13;;
691;SDS011;70475;50.084;8.576;2024-03-07T01:44:07;18.10;;;9.70;;
691;SDS011;70475;50.084;8.576;2024-03-07T01:46:35;18.70;;;10.77;;
691;SDS011;70475;50.084;8.576;2024-03-07T01:49:03;13.37;;;9.80;;
691;SDS011;70475;50.084;8.576;2024-03-07T01:51:34;16.17;;;10.60;;
691;SDS011;70475;50.084;8.576;2024-03-07T01:54:03;16.93;;;11.83;;
691;SDS011;70475;50.084;8.576;2024-03-07T01:56:32;19.17;;;10.07;;
691;SDS011;70475;50.084;8.576;2024-03-07T01:58:59;13.13;;;8.17;;
691;SDS011;70475;50.084;8.576;2024-03-07T02:01:28;19.63;;;11.83;;
691;SDS011;70475;50.084;8.576;2024-03-07T02:03:56;16.10;;;8.50;;
691;SDS011;70475;50.084;8.576;2024-03-07T02:06:24;19.13;;;7.90;;
691;SDS011;70475;50.084;8.576;2024-03-07T02:08:54;10.67;;;6.40;;
691;SDS011;70475;50.084;8.576;2024-03-07T02:11:22;17.03;;;9.50;;
691;SDS011;70475;50.084;8.576;2024-03-07T02:13:50;19.30;;;12.00;;
691;SDS011;70475;50.084;8.576;2024-03-07T02:16:17;17.87;;;10.70;;
691;SDS011;70475;50.084;8.576;2024-03-07T02:18:46;15.13;;;9.40;;
691;SDS011;70475;50.084;8.576;2024-03-07T02:21:15;15.90;;;10.50;;
691;SDS011;70475;50.084;8.576;2024-03-07T02:23:43;13.00;;;8.27;;
691;SDS011;70475;50.084;8.576;2024-03-07T02:26:10;20.27;;;10.27;;
691;SDS011;70475;50.084;8.576;2024-03-07T02:28:38;9.97;;;7.07;;
691;SDS011;70475;50.084;8.576;2024-03-07T02:31:06;6.90;;;6.17;;
691;SDS011;70475;50.084;8.576;2024-03-07T02:33:33;16.33;;;7.70;;
691;SDS011;70475;50.084;8.576;2024-03-07T02:36:02;9.93;;;8.13;;
691;SDS011;70475;50.084;8.576;2024-03-07T02:38:31;8.17;;;7.37;;
691;SDS011;70475;50.084;8.576;2024-03-07T02:40:58;16.23;;;10.93;;
691;SDS011;70475;50.084;8.576;2024-03-07T02:43:26;16.77;;;10.63;;
691;SDS011;70475;50.084;8.576;2024-03-07T02:45:54;22.00;;;12.87;;
691;SDS011;70475;50.084;8.576;2024-03-07T02:48:21;18.70;;;12.23;;
691;SDS011;70475;50.084;8.576;2024-03-07T02:50:49;16.23;;;11.33;;
691;SDS011;70475;50.084;8.576;2024-03-07T02:53:17;12.90;;;8.50;;
691;SDS011;70475;50.084;8.576;2024-03-07T02:55:46;14.60;;;7.27;;
691;SDS011;70475;50.084;8.576;2024-03-07T02:58:13;13.57;;;9.80;;
691;SDS011;70475;50.084;8.576;2024-03-07T03:00:42;17.47;;;12.20;;
691;SDS011;70475;50.084;8.576;2024-03-07T03:03:10;18.90;;;8.90;;
691;SDS011;70475;50.084;8.576;2024-03-07T03:05:37;16.13;;;9.30;;
691;SDS011;70475;50.084;8.576;2024-03-07T03:08:05;19.27;;;9.57;;
691;SDS011;70475;50.084;8.576;2024-03-07T03:10:33;12.60;;;10.13;;
691;SDS011;70475;50.084;8.576;2024-03-07T03:13:02;16.90;;;10.30;;
691;SDS011;70475;50.084;8.576;2024-03-07T03:15:30;14.07;;;12.20;;
691;SDS011;70475;50.084;8.576;2024-03-07T03:17:58;21.97;;;10.47;;
691;SDS011;70475;50.084;8.576;2024-03-07T03:20:27;17.97;;;9.20;;
691;SDS011;70475;50.084;8.576;2024-03-07T03:23:01;7.53;;;5.13;;
691;SDS011;70475;50.084;8.576;2024-03-07T03:25:32;20.97;;;9.27;;
691;SDS011;70475;50.084;8.576;2024-03-07T03:28:02;17.60;;;9.07;;
691;SDS011;70475;50.084;8.576;2024-03-07T03:30:30;18.40;;;11.20;;
691;SDS011;70475;50.084;8.576;2024-03-07T03:32:58;20.67;;;11.17;;
691;SDS011;70475;50.084;8.576;2024-03-07T03:35:27;11.13;;;8.80;;
691;SDS011;70475;50.084;8.576;2024-03-07T03:37:54;11.10;;;8.00;;
691;SDS011;70475;50.084;8.576;2024-03-07T03:40:22;10.37;;;7.90;;
691;SDS011;70475;50.084;8.576;2024-03-07T03:42:50;10.50;;;7.37;;
691;SDS011;70475;50.084;8.576;2024-03-07T03:45:19;15.07;;;10.27;;
691;SDS011;70475;50.084;8.576;2024-03-07T03:47:47;19.77;;;10.80;;
691;SDS011;70475;50.084;8.576;2024-03-07T03:50:15;12.53;;;10.63;;
691;SDS011;70475;50.084;8.576;2024-03-07T03:52:44;10.50;;;7.40;;
691;SDS011;70475;50.084;8.576;2024-03-07T03:55:11;11.23;;;7.93;;
691;SDS011;70475;50.084;8.576;2024-03-07T03:57:39;16.27;;;6.00;;
691;SDS011;70475;50.084;8.576;2024-03-07T04:00:08;13.90;;;8.40;;
691;SDS011;70475;50.084;8.576;2024-03-07T04:02:41;19.13;;;9.70;;
691;SDS011;70475;50.084;8.576;2024-03-07T04:05:11;11.93;;;8.77;;
691;SDS011;70475;50.084;8.576;2024-03-07T04:07:39;14.67;;;9.23;;
691;SDS011;70475;50.084;8.576;2024-03-07T04:10:08;14.63;;;8.70;;
691;SDS011;70475;50.084;8.576;2024-03-07T04:12:37;15.07;;;9.77;;
691;SDS011;70475;50.084;8.576;2024-03-07T04:15:06;16.23;;;7.37;;
691;SDS011;70475;50.084;8.576;2024-03-07T04:17:35;13.47;;;9.53;;
691;SDS011;70475;50.084;8.576;2024-03-07T04:20:05;15.10;;;9.00;;
691;SDS011;70475;50.084;8.576;2024-03-07T04:22:37;16.10;;;7.37;;
691;SDS011;70475;50.084;8.576;2024-03-07T04:25:05;11.93;;;8.97;;
691;SDS011;70475;50.084;8.576;2024-03-07T04:27:34;7.70;;;4.97;;
691;SDS011;70475;50.084;8.576;2024-03-07T04:30:03;14.93;;;12.90;;
691;SDS011;70475;50.084;8.576;2024-03-07T04:32:32;13.43;;;9.00;;
691;SDS011;70475;50.084;8.576;2024-03-07T04:35:01;10.63;;;6.60;;
691;SDS011;70475;50.084;8.576;2024-03-07T04:37:31;12.20;;;5.77;;
691;SDS011;70475;50.084;8.576;2024-03-07T04:40:03;11.47;;;7.73;;
691;SDS011;70475;50.084;8.576;2024-03-07T04:42:37;18.70;;;8.73;;
691;SDS011;70475;50.084;8.576;2024-03-07T04:45:05;17.47;;;8.07;;
691;SDS011;70475;50.084;8.576;2024-03-07T04:47:33;6.57;;;5.37;;
691;SDS011;70475;50.084;8.576;2024-03-07T04:50:01;15.07;;;10.20;;
691;SDS011;70475;50.084;8.576;2024-03-07T04:52:28;12.03;;;7.50;;
691;SDS011;70475;50.084;8.576;2024-03-07T04:54:57;12.30;;;6.77;;
691;SDS011;70475;50.084;8.576;2024-03-07T04:57:24;6.43;;;5.87;;
691;SDS011;70475;50.084;8.576;2024-03-07T04:59:53;13.30;;;8.03;;
691;SDS011;70475;50.084;8.576;2024-03-07T05:02:21;10.37;;;6.07;;
691;SDS011;70475;50.084;8.576;2024-03-07T05:04:49;14.93;;;8.33;;
691;SDS011;70475;50.084;8.576;2024-03-07T05:07:18;10.83;;;5.90;;
691;SDS011;70475;50.084;8.576;2024-03-07T05:09:46;12.33;;;6.33;;
691;SDS011;70475;50.084;8.576;2024-03-07T05:12:15;9.07;;;5.13;;
691;SDS011;70475;50.084;8.576;2024-03-07T05:14:43;18.53;;;6.57;;
691;SDS011;70475;50.084;8.576;2024-03-07T05:17:11;11.73;;;7.50;;
691;SDS011;70475;50.084;8.576;2024-03-07T05:19:38;11.63;;;8.40;;
691;SDS011;70475;50.084;8.576;2024-03-07T05:22:06;16.57;;;9.87;;
691;SDS011;70475;50.084;8.576;2024-03-07T05:24:34;11.30;;;8.27;;
691;SDS011;70475;50.084;8.576;2024-03-07T05:27:03;10.73;;;7.83;;
691;SDS011;70475;50.084;8.576;2024-03-07T05:29:31;13.23;;;7.17;;
691;SDS011;70475;50.084;8.576;2024-03-07T05:32:18;14.10;;;6.63;;
691;SDS011;70475;50.084;8.576;2024-03-07T05:34:47;12.53;;;8.33;;
691;SDS011;70475;50.084;8.576;2024-03-07T05:37:14;9.97;;;7.03;;
691;SDS011;70475;50.084;8.576;2024-03-07T05:39:42;6.20;;;3.80;;
691;SDS011;70475;50.084;8.576;2024-03-07T05:42:10;9.63;;;8.50;;
691;SDS011;70475;50.084;8.576;2024-03-07T05:44:41;13.80;;;8.00;;
691;SDS011;70475;50.084;8.576;2024-03-07T05:47:09;21.10;;;9.60;;
691;SDS011;70475;50.084;8.576;2024-03-07T05:49:40;13.33;;;8.40;;
691;SDS011;70475;50.084;8.576;2024-03-07T05:52:08;12.80;;;8.57;;
691;SDS011;70475;50.084;8.576;2024-03-07T05:54:36;13.23;;;7.87;;
691;SDS011;70475;50.084;8.576;2024-03-07T05:57:04;9.93;;;4.60;;
691;SDS011;70475;50.084;8.576;2024-03-07T05:59:33;14.87;;;10.50;;
691;SDS011;70475;50.084;8.576;2024-03-07T06:02:02;13.63;;;8.50;;
691;SDS011;70475;50.084;8.576;2024-03-07T06:04:29;7.60;;;5.90;;
691;SDS011;70475;50.084;8.576;2024-03-07T06:06:58;12.83;;;8.40;;
691;SDS011;70475;50.084;8.576;2024-03-07T06:09:26;13.03;;;9.53;;
691;SDS011;70475;50.084;8.576;2024-03-07T06:11:53;10.33;;;5.33;;
691;SDS011;70475;50.084;8.576;2024-03-07T06:14:21;41.63;;;9.80;;
691;SDS011;70475;50.084;8.576;2024-03-07T06:16:51;6.63;;;5.90;;
691;SDS011;70475;50.084;8.576;2024-03-07T06:19:20;13.33;;;8.67;;
691;SDS011;70475;50.084;8.576;2024-03-07T06:21:48;10.63;;;6.70;;
691;SDS011;70475;50.084;8.576;2024-03-07T06:24:15;6.63;;;5.67;;
691;SDS011;70475;50.084;8.576;2024-03-07T06:26:45;19.10;;;10.77;;
691;SDS011;70475;50.084;8.576;2024-03-07T06:29:16;11.73;;;7.00;;
691;SDS011;70475;50.084;8.576;2024-03-07T06:31:45;4.63;;;4.23;;
691;SDS011;70475;50.084;8.576;2024-03-07T06:34:13;11.07;;;8.53;;
691;SDS011;70475;50.084;8.576;2024-03-07T06:36:42;14.10;;;9.17;;
691;SDS011;70475;50.084;8.576;2024-03-07T06:39:10;14.97;;;11.10;;
691;SDS011;70475;50.084;8.576;2024-03-07T06:41:38;18.23;;;8.57;;
691;SDS011;70475;50.084;8.576;2024-03-07T06:44:07;17.10;;;8.87;;
691;SDS011;70475;50.084;8.576;2024-03-07T06:46:36;9.00;;;8.10;;
691;SDS011;70475;50.084;8.576;2024-03-07T06:49:03;8.03;;;6.10;;
691;SDS011;70475;50.084;8.576;2024-03-07T06:51:36;13.43;;;9.00;;
691;SDS011;70475;50.084;8.576;2024-03-07T06:54:07;16.40;;;7.70;;
691;SDS011;70475;50.084;8.576;2024-03-07T06:56:34;11.33;;;7.53;;
691;SDS011;70475;50.084;8.576;2024-03-07T06:59:02;16.47;;;8.57;;
691;SDS011;70475;50.084;8.576;2024-03-07T07:01:31;14.60;;;8.67;;
691;SDS011;70475;50.084;8.576;2024-03-07T07:03:59;11.93;;;8.50;;
691;SDS011;70475;50.084;8.576;2024-03-07T07:06:30;13.83;;;8.40;;
691;SDS011;70475;50.084;8.576;2024-03-07T07:08:57;9.33;;;6.20;;
691;SDS011;70475;50.084;8.576;2024-03-07T07:11:30;9.07;;;5.33;;
691;SDS011;70475;50.084;8.576;2024-03-07T07:14:01;39.60;;;6.80;;
691;SDS011;70475;50.084;8.576;2024-03-07T07:16:28;16.90;;;10.20;;
691;SDS011;70475;50.084;8.576;2024-03-07T07:18:57;15.37;;;8.20;;
691;SDS011;70475;50.084;8.576;2024-03-07T07:21:24;7.50;;;5.50;;
691;SDS011;70475;50.084;8.576;2024-03-07T07:23:52;10.90;;;8.30;;
691;SDS011;70475;50.084;8.576;2024-03-07T07:26:20;10.53;;;8.13;;
691;SDS011;70475;50.084;8.576;2024-03-07T07:28:49;9.10;;;6.50;;
691;SDS011;70475;50.084;8.576;2024-03-07T07:31:20;8.80;;;7.87;;
691;SDS011;70475;50.084;8.576;2024-03-07T07:33:47;14.93;;;8.93;;
691;SDS011;70475;50.084;8.576;2024-03-07T07:36:15;4.87;;;4.30;;
691;SDS011;70475;50.084;8.576;2024-03-07T07:38:43;6.40;;;5.77;;
691;SDS011;70475;50.084;8.576;2024-03-07T07:41:10;8.03;;;4.57;;
691;SDS011;70475;50.084;8.576;2024-03-07T07:43:39;4.60;;;4.20;;
691;SDS011;70475;50.084;8.576;2024-03-07T07:46:10;8.53;;;7.70;;
691;SDS011;70475;50.084;8.576;2024-03-07T07:48:38;9.87;;;6.03;;
691;SDS011;70475;50.084;8.576;2024-03-07T07:51:06;10.00;;;3.40;;
691;SDS011;70475;50.084;8.576;2024-03-07T07:53:33;13.63;;;8.83;;
691;SDS011;70475;50.084;8.576;2024-03-07T07:56:01;13.17;;;7.20;;
691;SDS011;70475;50.084;8.576;2024-03-07T07:58:29;10.27;;;7.33;;
691;SDS011;70475;50.084;8.576;2024-03-07T08:00:57;9.27;;;7.50;;
691;SDS011;70475;50.084;8.576;2024-03-07T08:03:26;10.77;;;7.77;;
691;SDS011;70475;50.084;8.576;2024-03-07T08:05:53;12.13;;;6.80;;
691;SDS011;70475;50.084;8.576;2024-03-07T08:08:21;5.77;;;5.27;;
691;SDS011;70475;50.084;8.576;2024-03-07T08:10:49;13.03;;;6.70;;
691;SDS011;70475;50.084;8.576;2024-03-07T08:13:17;14.67;;;7.50;;
691;SDS011;70475;50.084;8.576;2024-03-07T08:15:45;21.73;;;9.77;;
691;SDS011;70475;50.084;8.576;2024-03-07T08:18:12;11.13;;;9.33;;
691;SDS011;70475;50.084;8.576;2024-03-07T08:20:41;13.20;;;6.20;;
691;SDS011;70475;50.084;8.576;2024-03-07T08:23:10;10.60;;;8.90;;
691;SDS011;70475;50.084;8.576;2024-03-07T08:25:39;7.83;;;5.53;;
691;SDS011;70475;50.084;8.576;2024-03-07T08:28:07;11.40;;;6.80;;
691;SDS011;70475;50.084;8.576;2024-03-07T08:30:35;4.67;;;3.60;;
691;SDS011;70475;50.084;8.576;2024-03-07T08:33:03;8.90;;;7.00;;
691;SDS011;70475;50.084;8.576;2024-03-07T08:35:32;10.20;;;7.07;;
691;SDS011;70475;50.084;8.576;2024-03-07T08:38:02;8.37;;;6.33;;
691;SDS011;70475;50.084;8.576;2024-03-07T08:40:31;0.80;;;0.80;;
691;SDS011;70475;50.084;8.576;2024-03-07T08:43:00;5.37;;;4.87;;
691;SDS011;70475;50.084;8.576;2024-03-07T08:45:29;14.70;;;7.43;;
691;SDS011;70475;50.084;8.576;2024-03-07T08:48:00;6.33;;;2.77;;
691;SDS011;70475;50.084;8.576;2024-03-07T08:50:30;9.27;;;4.07;;
691;SDS011;70475;50.084;8.576;2024-03-07T08:53:01;9.60;;;5.37;;
691;SDS011;70475;50.084;8.576;2024-03-07T08:55:30;6.17;;;4.77;;
691;SDS011;70475;50.084;8.576;2024-03-07T08:57:58;21.80;;;8.10;;
691;SDS011;70475;50.084;8.576;2024-03-07T09:00:25;9.00;;;5.80;;
691;SDS011;70475;50.084;8.576;2024-03-07T09:02:54;10.53;;;5.57;;
691;SDS011;70475;50.084;8.576;2024-03-07T09:05:25;13.57;;;7.57;;
691;SDS011;70475;50.084;8.576;2024-03-07T09:07:54;9.87;;;6.87;;
691;SDS011;70475;50.084;8.576;2024-03-07T09:10:23;9.63;;;5.57;;
691;SDS011;70475;50.084;8.576;2024-03-07T09:12:52;11.10;;;7.30;;
691;SDS011;70475;50.084;8.576;2024-03-07T09:15:21;12.43;;;7.40;;
691;SDS011;70475;50.084;8.576;2024-03-07T09:17:50;10.63;;;7.10;;
691;SDS011;70475;50.084;8.576;2024-03-07T09:20:19;8.83;;;7.80;;
691;SDS011;70475;50.084;8.576;2024-03-07T09:22:48;11.80;;;5.80;;
691;SDS011;70475;50.084;8.576;2024-03-07T09:25:17;11.30;;;8.00;;
691;SDS011;70475;50.084;8.576;2024-03-07T09:27:47;6.43;;;3.07;;
691;SDS011;70475;50.084;8.576;2024-03-07T09:30:15;6.20;;;5.60;;
691;SDS011;70475;50.084;8.576;2024-03-07T09:32:45;9.00;;;5.10;;
691;SDS011;70475;50.084;8.576;2024-03-07T09:35:13;13.07;;;7.30;;
691;SDS011;70475;50.084;8.576;2024-03-07T09:37:42;6.20;;;5.40;;
691;SDS011;70475;50.084;8.576;2024-03-07T09:40:10;13.20;;;5.60;;
691;SDS011;70475;50.084;8.576;2024-03-07T09:42:41;9.73;;;6.47;;
691;SDS011;70475;50.084;8.576;2024-03-07T09:45:16;10.27;;;5.47;;
691;SDS011;70475;50.084;8.576;2024-03-07T09:47:46;11.73;;;7.53;;
691;SDS011;70475;50.084;8.576;2024-03-07T09:50:15;7.80;;;6.47;;
691;SDS011;70475;50.084;8.576;2024-03-07T09:52:46;9.00;;;6.07;;
691;SDS011;70475;50.084;8.576;2024-03-07T09:55:15;18.60;;;6.73;;
691;SDS011;70475;50.084;8.576;2024-03-07T09:57:46;10.13;;;6.37;;
691;SDS011;70475;50.084;8.576;2024-03-07T10:00:16;8.70;;;6.37;;
691;SDS011;70475;50.084;8.576;2024-03-07T10:02:50;4.60;;;4.20;;
691;SDS011;70475;50.084;8.576;2024-03-07T10:05:22;11.40;;;4.97;;
691;SDS011;70475;50.084;8.576;2024-03-07T10:07:51;9.90;;;7.20;;
691;SDS011;70475;50.084;8.576;2024-03-07T10:10:19;6.77;;;6.20;;
691;SDS011;70475;50.084;8.576;2024-03-07T10:12:48;10.17;;;6.07;;
691;SDS011;70475;50.084;8.576;2024-03-07T10:15:17;8.20;;;4.10;;
691;SDS011;70475;50.084;8.576;2024-03-07T10:17:45;6.57;;;5.27;;
691;SDS011;70475;50.084;8.576;2024-03-07T10:20:14;17.63;;;5.70;;
691;SDS011;70475;50.084;8.576;2024-03-07T10:22:47;8.87;;;5.43;;
691;SDS011;70475;50.084;8.576;2024-03-07T10:25:16;8.47;;;5.33;;
691;SDS011;70475;50.084;8.576;2024-03-07T10:27:45;7.90;;;4.93;;
691;SDS011;70475;50.084;8.576;2024-03-07T10:30:15;12.40;;;6.57;;
691;SDS011;70475;50.084;8.576;2024-03-07T10:32:49;8.57;;;4.93;;
691;SDS011;70475;50.084;8.576;2024-03-07T10:35:21;11.00;;;6.83;;
691;SDS011;70475;50.084;8.576;2024-03-07T10:37:50;14.23;;;6.67;;
691;SDS011;70475;50.084;8.576;2024-03-07T10:40:20;8.50;;;5.57;;
691;SDS011;70475;50.084;8.576;2024-03-07T10:42:48;11.80;;;6.10;;
691;SDS011;70475;50.084;8.576;2024-03-07T10:45:20;8.97;;;6.37;;
691;SDS011;70475;50.084;8.576;2024-03-07T10:47:50;14.30;;;5.23;;
691;SDS011;70475;50.084;8.576;2024-03-07T10:50:24;13.80;;;5.00;;
691;SDS011;70475;50.084;8.576;2024-03-07T10:53:07;2.13;;;1.87;;
691;SDS011;70475;50.084;8.576;2024-03-07T10:55:40;5.77;;;3.73;;
691;SDS011;70475;50.084;8.576;2024-03-07T10:58:30;6.73;;;4.70;;
691;SDS011;70475;50.084;8.576;2024-03-07T11:01:04;11.27;;;7.20;;
691;SDS011;70475;50.084;8.576;2024-03-07T11:03:34;12.87;;;5.63;;
691;SDS011;70475;50.084;8.576;2024-03-07T11:06:02;8.13;;;5.33;;
691;SDS011;70475;50.084;8.576;2024-03-07T11:08:33;7.70;;;3.40;;
691;SDS011;70475;50.084;8.576;2024-03-07T11:11:02;12.03;;;4.30;;
691;SDS011;70475;50.084;8.576;2024-03-07T11:13:30;4.60;;;3.67;;
691;SDS011;70475;50.084;8.576;2024-03-07T11:15:58;9.27;;;5.60;;
691;SDS011;70475;50.084;8.576;2024-03-07T11:18:30;11.13;;;6.30;;
691;SDS011;70475;50.084;8.576;2024-03-07T11:20:58;8.47;;;5.60;;
691;SDS011;70475;50.084;8.576;2024-03-07T11:26:03;6.53;;;5.17;;
691;SDS011;70475;50.084;8.576;2024-03-07T11:28:34;9.63;;;6.23;;
691;SDS011;70475;50.084;8.576;2024-03-07T11:31:07;9.23;;;6.03;;
691;SDS011;70475;50.084;8.576;2024-03-07T11:33:41;14.87;;;6.30;;
691;SDS011;70475;50.084;8.576;2024-03-07T11:36:10;6.73;;;3.27;;
691;SDS011;70475;50.084;8.576;2024-03-07T11:38:44;3.37;;;2.50;;
691;SDS011;70475;50.084;8.576;2024-03-07T11:41:12;8.37;;;4.77;;
691;SDS011;70475;50.084;8.576;2024-03-07T11:43:41;7.50;;;5.80;;
691;SDS011;70475;50.084;8.576;2024-03-07T11:46:09;13.17;;;6.27;;
691;SDS011;70475;50.084;8.576;2024-03-07T11:48:44;10.00;;;5.80;;
691;SDS011;70475;50.084;8.576;2024-03-07T11:51:13;4.37;;;3.77;;
691;SDS011;70475;50.084;8.576;2024-03-07T11:53:41;7.87;;;6.47;;
691;SDS011;70475;50.084;8.576;2024-03-07T11:56:14;7.40;;;5.70;;
691;SDS011;70475;50.084;8.576;2024-03-07T11:58:44;10.47;;;6.57;;
691;SDS011;70475;50.084;8.576;2024-03-07T12:01:18;2.47;;;2.27;;
691;SDS011;70475;50.084;8.576;2024-03-07T12:03:53;6.90;;;4.87;;
691;SDS011;70475;50.084;8.576;2024-03-07T12:06:23;7.93;;;5.03;;
691;SDS011;70475;50.084;8.576;2024-03-07T12:08:51;8.93;;;5.30;;
691;SDS011;70475;50.084;8.576;2024-03-07T12:11:19;7.40;;;4.03;;
691;SDS011;70475;50.084;8.576;2024-03-07T12:13:47;12.87;;;7.30;;
691;SDS011;70475;50.084;8.576;2024-03-07T12:16:15;10.30;;;6.77;;
691;SDS011;70475;50.084;8.576;2024-03-07T12:18:42;12.17;;;7.10;;
691;SDS011;70475;50.084;8.576;2024-03-07T12:21:12;11.57;;;6.80;;
691;SDS011;70475;50.084;8.576;2024-03-07T12:23:41;9.43;;;5.20;;
691;SDS011;70475;50.084;8.576;2024-03-07T12:26:09;7.80;;;5.77;;
691;SDS011;70475;50.084;8.576;2024-03-07T12:28:43;8.50;;;4.77;;
691;SDS011;70475;50.084;8.576;2024-03-07T12:31:12;3.80;;;3.20;;
691;SDS011;70475;50.084;8.576;2024-03-07T12:33:43;9.67;;;4.80;;
691;SDS011;70475;50.084;8.576;2024-03-07T12:36:19;9.80;;;5.97;;
691;SDS011;70475;50.084;8.576;2024-03-07T12:38:52;11.87;;;5.23;;
691;SDS011;70475;50.084;8.576;2024-03-07T12:41:21;5.93;;;4.70;;
691;SDS011;70475;50.084;8.576;2024-03-07T12:43:50;8.83;;;5.07;;
691;SDS011;70475;50.084;8.576;2024-03-07T12:46:17;5.80;;;5.00;;
691;SDS011;70475;50.084;8.576;2024-03-07T12:48:46;9.10;;;5.03;;
691;SDS011;70475;50.084;8.576;2024-03-07T12:51:15;7.93;;;3.70;;
691;SDS011;70475;50.084;8.576;2024-03-07T12:53:47;6.90;;;4.50;;
691;SDS011;70475;50.084;8.576;2024-03-07T12:56:15;5.43;;;4.20;;
691;SDS011;70475;50.084;8.576;2024-03-07T12:58:46;4.80;;;3.60;;
691;SDS011;70475;50.084;8.576;2024-03-07T13:01:14;7.23;;;4.57;;
691;SDS011;70475;50.084;8.576;2024-03-07T13:03:44;8.17;;;4.87;;
691;SDS011;70475;50.084;8.576;2024-03-07T13:06:14;5.83;;;4.10;;
691;SDS011;70475;50.084;8.576;2024-03-07T13:08:42;4.93;;;4.40;;
691;SDS011;70475;50.084;8.576;2024-03-07T13:11:11;8.40;;;3.87;;
691;SDS011;70475;50.084;8.576;2024-03-07T13:13:39;7.23;;;4.33;;
691;SDS011;70475;50.084;8.576;2024-03-07T13:16:06;4.50;;;4.00;;
691;SDS011;70475;50.084;8.576;2024-03-07T13:18:35;8.10;;;6.23;;
691;SDS011;70475;50.084;8.576;2024-03-07T13:21:04;8.63;;;4.90;;
691;SDS011;70475;50.084;8.576;2024-03-07T13:23:33;7.40;;;4.63;;
691;SDS011;70475;50.084;8.576;2024-03-07T13:26:02;6.10;;;4.53;;
691;SDS011;70475;50.084;8.576;2024-03-07T13:28:36;7.10;;;4.10;;
691;SDS011;70475;50.084;8.576;2024-03-07T13:31:04;6.50;;;4.03;;
691;SDS011;70475;50.084;8.576;2024-03-07T13:33:32;10.43;;;6.20;;
691;SDS011;70475;50.084;8.576;2024-03-07T13:36:01;6.23;;;3.13;;
691;SDS011;70475;50.084;8.576;2024-03-07T13:38:30;6.83;;;3.77;;
691;SDS011;70475;50.084;8.576;2024-03-07T13:40:58;10.40;;;4.63;;
691;SDS011;70475;50.084;8.576;2024-03-07T13:43:41;8.63;;;3.77;;
691;SDS011;70475;50.084;8.576;2024-03-07T13:46:08;4.67;;;3.37;;
691;SDS011;70475;50.084;8.576;2024-03-07T13:48:38;5.13;;;3.03;;
691;SDS011;70475;50.084;8.576;2024-03-07T13:51:08;7.77;;;3.60;;
691;SDS011;70475;50.084;8.576;2024-03-07T13:53:36;6.80;;;4.17;;
691;SDS011;70475;50.084;8.576;2024-03-07T13:59:36;7.27;;;4.97;;
691;SDS011;70475;50.084;8.576;2024-03-07T14:05:36;6.13;;;3.90;;
691;SDS011;70475;50.084;8.576;2024-03-07T14:08:33;2.47;;;1.50;;
691;SDS011;70475;50.084;8.576;2024-03-07T14:11:49;6.83;;;3.33;;
691;SDS011;70475;50.084;8.576;2024-03-07T14:18:01;12.00;;;4.83;;
691;SDS011;70475;50.084;8.576;2024-03-07T14:20:53;5.97;;;3.60;;
691;SDS011;70475;50.084;8.576;2024-03-07T14:23:39;8.90;;;2.70;;
691;SDS011;70475;50.084;8.576;2024-03-07T14:26:35;4.40;;;2.37;;
691;SDS011;70475;50.084;8.576;2024-03-07T14:29:12;2.23;;;2.03;;
691;SDS011;70475;50.084;8.576;2024-03-07T14:31:50;3.87;;;2.80;;
691;SDS011;70475;50.084;8.576;2024-03-07T14:34:22;5.30;;;4.80;;
691;SDS011;70475;50.084;8.576;2024-03-07T14:37:04;7.73;;;5.27;;
691;SDS011;70475;50.084;8.576;2024-03-07T14:39:39;8.13;;;4.57;;
691;SDS011;70475;50.084;8.576;2024-03-07T14:42:07;7.40;;;4.07;;
691;SDS011;70475;50.084;8.576;2024-03-07T14:44:42;5.30;;;4.40;;
691;SDS011;70475;50.084;8.576;2024-03-07T14:47:14;4.77;;;2.83;;
691;SDS011;70475;50.084;8.576;2024-03-07T14:49:46;6.80;;;4.70;;
691;SDS011;70475;50.084;8.576;2024-03-07T14:52:14;7.20;;;3.93;;
691;SDS011;70475;50.084;8.576;2024-03-07T14:54:42;6.13;;;4.20;;
691;SDS011;70475;50.084;8.576;2024-03-07T14:57:10;7.30;;;4.03;;
691;SDS011;70475;50.084;8.576;2024-03-07T14:59:38;3.77;;;2.33;;
691;SDS011;70475;50.084;8.576;2024-03-07T15:02:07;3.90;;;2.20;;
691;SDS011;70475;50.084;8.576;2024-03-07T15:04:38;10.30;;;6.53;;
691;SDS011;70475;50.084;8.576;2024-03-07T15:07:08;5.97;;;2.93;;
691;SDS011;70475;50.084;8.576;2024-03-07T15:09:36;8.40;;;3.20;;
691;SDS011;70475;50.084;8.576;2024-03-07T15:12:04;3.53;;;2.97;;
691;SDS011;70475;50.084;8.576;2024-03-07T15:14:34;8.27;;;4.80;;
691;SDS011;70475;50.084;8.576;2024-03-07T15:17:05;4.73;;;3.20;;
691;SDS011;70475;50.084;8.576;2024-03-07T15:19:33;8.60;;;3.70;;
691;SDS011;70475;50.084;8.576;2024-03-07T15:22:03;6.20;;;4.23;;
691;SDS011;70475;50.084;8.576;2024-03-07T15:24:31;7.37;;;3.93;;
691;SDS011;70475;50.084;8.576;2024-03-07T15:27:01;9.37;;;3.93;;
691;SDS011;70475;50.084;8.576;2024-03-07T15:29:29;5.37;;;2.57;;
691;SDS011;70475;50.084;8.576;2024-03-07T15:31:57;4.40;;;2.00;;